5OH8 weather

Joseph Skilken & Co Heliport
Columbus, Ohio, United States

Public forecast

Using degrees Fahrenheit for public forecast. Weather courtesy of forecast.io.

Closest aviation weather report (METAR) to Joseph Skilken & Co Heliport

Closest report is John Glenn Columbus International Airport, 5.5 nm (10.1 km) ENE. Retrieved 2020/06/02 08:51 UTC (2 hours ago):

KCMH 020851Z 18004KT 10SM OVC110 17/07 A3008 RMK AO2 SLP183 60000 T01720072 56014

Closest aviation forecast (TAF) to Joseph Skilken & Co Heliport

Closest forecast is John Glenn Columbus International Airport, 5.5 nm (10.1 km) ENE. Retrieved 2020/06/02 06:28 UTC (4 hours ago):

TAF KCMH 020526Z 0206/0306 19005KT P6SM BKN100 FM021200 21010KT P6SM SCT150 FM021500 25015G23KT P6SM SCT200 FM030000 24010KT P6SM FEW250